createdAt,value
2017-10-07T00:00:39.727Z,21.55
2017-10-07T00:01:39.757Z,21.52
2017-10-07T00:02:40.112Z,21.56
2017-10-07T00:03:39.820Z,21.55
2017-10-07T00:04:39.852Z,21.58
2017-10-07T00:05:39.891Z,21.56
2017-10-07T00:06:39.915Z,21.55
2017-10-07T00:07:39.949Z,21.61
2017-10-07T00:08:40.279Z,21.53
2017-10-07T00:09:40.011Z,21.56
2017-10-07T00:10:40.043Z,21.53
2017-10-07T00:11:40.079Z,21.52
2017-10-07T00:12:40.107Z,21.53
2017-10-07T00:13:40.143Z,21.53
2017-10-07T00:14:40.471Z,21.56
2017-10-07T00:15:40.206Z,21.53
2017-10-07T00:16:40.241Z,21.52
2017-10-07T00:17:40.432Z,21.52
2017-10-07T00:18:40.303Z,21.56
2017-10-07T00:19:40.334Z,21.49
2017-10-07T00:20:40.668Z,21.55
2017-10-07T00:21:40.398Z,21.52
2017-10-07T00:22:40.431Z,21.45
2017-10-07T00:23:40.686Z,21.56
2017-10-07T00:24:40.505Z,21.56
2017-10-07T00:25:40.525Z,21.58
2017-10-07T00:26:40.862Z,21.45
2017-10-07T00:27:40.598Z,21.58
2017-10-07T00:28:40.623Z,21.51
2017-10-07T00:29:40.653Z,21.49
2017-10-07T00:30:40.689Z,21.40
2017-10-07T00:31:40.718Z,21.48
2017-10-07T00:32:41.102Z,21.40
2017-10-07T00:33:40.786Z,21.48
2017-10-07T00:34:40.839Z,21.46
2017-10-07T00:35:40.847Z,21.48
2017-10-07T00:36:40.879Z,21.48
2017-10-07T00:37:40.913Z,21.48
2017-10-07T00:38:40.953Z,21.51
2017-10-07T00:39:41.290Z,21.46
2017-10-07T00:40:41.115Z,21.48
2017-10-07T00:41:41.045Z,21.43
2017-10-07T00:42:41.074Z,21.46
2017-10-07T00:43:41.112Z,21.46
2017-10-07T00:44:41.138Z,21.45
2017-10-07T00:45:41.781Z,21.46
2017-10-07T00:46:41.202Z,21.46
2017-10-07T00:47:41.235Z,21.45
2017-10-07T00:48:41.275Z,21.48
2017-10-07T00:49:41.299Z,21.40
2017-10-07T00:50:41.330Z,21.49
2017-10-07T00:51:41.665Z,21.46
2017-10-07T00:52:41.395Z,21.52
2017-10-07T00:53:41.441Z,21.46
2017-10-07T00:54:41.462Z,21.43
2017-10-07T00:55:41.547Z,21.43
2017-10-07T00:56:41.526Z,21.48
2017-10-07T00:57:41.558Z,21.43
2017-10-07T00:58:41.888Z,21.42
2017-10-07T00:59:41.623Z,21.51
2017-10-07T01:00:41.852Z,21.45
2017-10-07T01:01:41.717Z,21.45
2017-10-07T01:02:41.716Z,21.52
2017-10-07T01:03:41.805Z,21.46
2017-10-07T01:04:41.786Z,21.42
2017-10-07T01:05:42.112Z,21.48
2017-10-07T01:06:41.848Z,21.43
2017-10-07T01:07:41.880Z,21.43
2017-10-07T01:08:41.909Z,21.46
2017-10-07T01:09:41.941Z,21.43
2017-10-07T01:10:41.979Z,21.42
2017-10-07T01:11:42.307Z,21.45
2017-10-07T01:12:42.041Z,21.48
2017-10-07T01:13:42.069Z,21.48
2017-10-07T01:14:42.106Z,21.42
2017-10-07T01:15:42.138Z,21.42
2017-10-07T01:16:42.171Z,21.42
2017-10-07T01:17:42.502Z,21.43
2017-10-07T01:18:42.236Z,21.45
2017-10-07T01:19:42.311Z,21.37
2017-10-07T01:20:42.300Z,21.42
2017-10-07T01:21:42.347Z,21.38
2017-10-07T01:22:42.458Z,21.46
2017-10-07T01:23:42.694Z,21.40
2017-10-07T01:24:42.428Z,21.42
2017-10-07T01:25:42.454Z,21.45
2017-10-07T01:26:42.685Z,21.42
2017-10-07T01:27:42.518Z,21.38
2017-10-07T01:28:42.561Z,21.34
2017-10-07T01:29:42.590Z,21.38
2017-10-07T01:30:42.978Z,21.42
2017-10-07T01:31:42.647Z,21.40
2017-10-07T01:32:42.782Z,21.31
2017-10-07T01:33:42.733Z,21.43
2017-10-07T01:34:42.742Z,21.42
2017-10-07T01:35:42.777Z,21.36
2017-10-07T01:36:43.114Z,21.43
2017-10-07T01:37:42.842Z,21.40
2017-10-07T01:38:42.871Z,21.40
2017-10-07T01:39:42.903Z,21.40
2017-10-07T01:40:42.934Z,21.36
2017-10-07T01:41:42.966Z,21.43
2017-10-07T01:42:43.457Z,21.45
2017-10-07T01:43:43.032Z,21.42
2017-10-07T01:44:43.069Z,21.37
2017-10-07T01:45:43.099Z,21.46
2017-10-07T01:46:43.126Z,21.43
2017-10-07T01:47:43.216Z,21.40
2017-10-07T01:48:43.507Z,21.42
2017-10-07T01:49:43.229Z,21.37
2017-10-07T01:50:43.254Z,21.38
2017-10-07T01:51:43.289Z,21.40
2017-10-07T01:52:43.322Z,21.38
2017-10-07T01:53:43.407Z,21.42
2017-10-07T01:54:43.390Z,21.38
2017-10-07T01:55:43.719Z,21.36
2017-10-07T01:56:43.454Z,21.36
2017-10-07T01:57:43.503Z,21.40
2017-10-07T01:58:43.511Z,21.40
2017-10-07T01:59:43.549Z,21.37
2017-10-07T02:00:43.581Z,21.37
2017-10-07T02:01:43.909Z,21.38
2017-10-07T02:02:43.639Z,21.42
2017-10-07T02:03:43.710Z,21.37
2017-10-07T02:04:43.721Z,21.40
2017-10-07T02:05:43.748Z,21.33
2017-10-07T02:06:43.767Z,21.43
2017-10-07T02:07:43.806Z,21.36
2017-10-07T02:08:44.143Z,21.36
2017-10-07T02:09:43.867Z,21.36
2017-10-07T02:10:43.896Z,21.40
2017-10-07T02:11:43.934Z,21.40
2017-10-07T02:12:43.974Z,21.36
2017-10-07T02:13:43.992Z,21.36
2017-10-07T02:14:44.026Z,21.36
2017-10-07T02:15:44.356Z,21.36
2017-10-07T02:16:44.103Z,21.42
2017-10-07T02:17:44.121Z,21.38
2017-10-07T02:18:44.156Z,21.30
2017-10-07T02:19:44.186Z,21.36
2017-10-07T02:20:44.219Z,21.36
2017-10-07T02:21:44.250Z,21.38
2017-10-07T02:22:44.585Z,21.36
2017-10-07T02:23:44.365Z,21.38
2017-10-07T02:24:44.346Z,21.36
2017-10-07T02:25:44.403Z,21.38
2017-10-07T02:26:44.408Z,21.38
2017-10-07T02:27:44.446Z,21.34
2017-10-07T02:28:44.474Z,21.36
2017-10-07T02:29:44.811Z,21.37
2017-10-07T02:30:44.540Z,21.33
2017-10-07T02:31:44.569Z,21.42
2017-10-07T02:32:44.601Z,21.36
2017-10-07T02:33:44.636Z,21.34
2017-10-07T02:34:44.966Z,21.33
2017-10-07T02:35:44.722Z,21.33
2017-10-07T02:36:45.037Z,21.43
2017-10-07T02:37:44.764Z,21.34
2017-10-07T02:38:44.793Z,21.37
2017-10-07T02:39:44.825Z,21.36
2017-10-07T02:40:44.985Z,21.34
2017-10-07T02:41:44.891Z,21.36
2017-10-07T02:42:45.235Z,21.40
2017-10-07T02:43:44.955Z,21.37
2017-10-07T02:44:44.986Z,21.37
2017-10-07T02:45:45.018Z,21.36
2017-10-07T02:46:45.101Z,21.43
2017-10-07T02:47:45.085Z,21.36
2017-10-07T02:48:45.487Z,21.36
2017-10-07T02:49:45.154Z,21.37
2017-10-07T02:50:45.179Z,21.38
2017-10-07T02:51:45.314Z,21.34
2017-10-07T02:52:45.258Z,21.36
2017-10-07T02:53:45.274Z,21.33
2017-10-07T02:54:45.330Z,21.33
2017-10-07T02:55:45.638Z,21.33
2017-10-07T02:56:45.419Z,21.34
2017-10-07T02:57:45.408Z,21.38
2017-10-07T02:58:45.434Z,21.36
2017-10-07T02:59:45.478Z,21.36
2017-10-07T03:00:45.500Z,21.38
2017-10-07T03:01:45.882Z,21.38
2017-10-07T03:02:45.569Z,21.36
2017-10-07T03:03:45.597Z,21.40
2017-10-07T03:04:45.638Z,21.40
2017-10-07T03:05:45.667Z,21.37
2017-10-07T03:06:45.691Z,21.38
2017-10-07T03:07:46.026Z,21.37
2017-10-07T03:08:45.795Z,21.36
2017-10-07T03:09:45.791Z,21.38
2017-10-07T03:10:45.825Z,21.37
2017-10-07T03:11:45.857Z,21.36
2017-10-07T03:12:45.936Z,21.38
2017-10-07T03:13:46.233Z,21.31
2017-10-07T03:14:45.960Z,21.37
2017-10-07T03:15:45.980Z,21.34
2017-10-07T03:16:46.031Z,21.37
2017-10-07T03:17:46.046Z,21.34
2017-10-07T03:18:46.132Z,21.38
2017-10-07T03:19:46.409Z,21.40
2017-10-07T03:20:46.494Z,21.34
2017-10-07T03:21:46.184Z,21.37
2017-10-07T03:22:46.216Z,21.40
2017-10-07T03:23:46.243Z,21.37
2017-10-07T03:24:46.271Z,21.36
2017-10-07T03:25:46.602Z,21.36
2017-10-07T03:26:46.510Z,21.33
2017-10-07T03:27:46.368Z,21.34
2017-10-07T03:28:46.397Z,21.38
2017-10-07T03:29:46.444Z,21.36
2017-10-07T03:30:46.479Z,21.34
2017-10-07T03:31:46.801Z,21.37
2017-10-07T03:32:46.530Z,21.37
2017-10-07T03:33:46.559Z,21.34
2017-10-07T03:34:46.596Z,21.36
2017-10-07T03:35:46.624Z,21.42
2017-10-07T03:36:46.708Z,21.34
2017-10-07T03:37:47.007Z,21.37
2017-10-07T03:38:46.770Z,21.34
2017-10-07T03:39:46.760Z,21.38
2017-10-07T03:40:46.806Z,21.36
2017-10-07T03:41:46.819Z,21.33
2017-10-07T03:42:46.856Z,21.34
2017-10-07T03:43:46.894Z,21.37
2017-10-07T03:44:47.217Z,21.37
2017-10-07T03:45:46.945Z,21.36
2017-10-07T03:46:46.976Z,21.34
2017-10-07T03:47:47.013Z,21.37
2017-10-07T03:48:47.047Z,21.36
2017-10-07T03:49:47.078Z,21.37
2017-10-07T03:50:47.108Z,21.38
2017-10-07T03:51:47.443Z,21.34
2017-10-07T03:52:47.220Z,21.37
2017-10-07T03:53:47.253Z,21.33
2017-10-07T03:54:47.237Z,21.36
2017-10-07T03:55:47.267Z,21.34
2017-10-07T03:56:47.337Z,21.36
2017-10-07T03:57:47.335Z,21.33
2017-10-07T03:58:47.818Z,21.38
2017-10-07T03:59:47.394Z,21.36
2017-10-07T04:00:47.427Z,21.37
2017-10-07T04:01:47.462Z,21.36
2017-10-07T04:02:47.499Z,21.38
2017-10-07T04:03:47.524Z,21.40
2017-10-07T04:04:47.866Z,21.36
2017-10-07T04:05:47.589Z,21.36
2017-10-07T04:06:47.674Z,21.31
2017-10-07T04:07:47.653Z,21.37
2017-10-07T04:08:47.735Z,21.33
2017-10-07T04:09:47.717Z,21.37
2017-10-07T04:10:48.046Z,21.33
2017-10-07T04:11:47.780Z,21.36
2017-10-07T04:12:47.813Z,21.40
2017-10-07T04:13:48.001Z,21.31
2017-10-07T04:14:47.882Z,21.40
2017-10-07T04:15:47.916Z,21.36
2017-10-07T04:16:47.946Z,21.37
2017-10-07T04:17:48.280Z,21.36
2017-10-07T04:18:48.035Z,21.34
2017-10-07T04:19:48.088Z,21.30
2017-10-07T04:20:48.072Z,21.27
2017-10-07T04:21:48.100Z,21.31
2017-10-07T04:22:48.136Z,21.31
2017-10-07T04:23:48.475Z,21.34
2017-10-07T04:24:48.348Z,21.38
2017-10-07T04:25:48.233Z,21.28
2017-10-07T04:26:48.263Z,21.34
2017-10-07T04:27:48.297Z,21.33
2017-10-07T04:28:48.330Z,21.28
2017-10-07T04:29:48.659Z,21.30
2017-10-07T04:30:48.477Z,21.31
2017-10-07T04:31:48.423Z,21.34
2017-10-07T04:32:48.495Z,21.33
2017-10-07T04:33:48.484Z,21.28
2017-10-07T04:34:48.517Z,21.28
2017-10-07T04:35:48.850Z,21.37
2017-10-07T04:36:48.735Z,21.30
2017-10-07T04:37:48.613Z,21.36
2017-10-07T04:38:48.646Z,21.38
2017-10-07T04:39:48.680Z,21.30
2017-10-07T04:40:48.708Z,21.34
2017-10-07T04:41:48.742Z,21.30
2017-10-07T04:42:49.078Z,21.26
2017-10-07T04:43:48.819Z,21.37
2017-10-07T04:44:48.845Z,21.33
2017-10-07T04:45:48.871Z,21.22
2017-10-07T04:46:48.900Z,21.33
2017-10-07T04:47:49.107Z,21.38
2017-10-07T04:48:48.992Z,21.28
2017-10-07T04:49:49.309Z,21.31
2017-10-07T04:50:49.030Z,21.34
2017-10-07T04:51:49.082Z,21.36
2017-10-07T04:52:49.094Z,21.37
2017-10-07T04:53:49.233Z,21.34
2017-10-07T04:54:49.160Z,21.34
2017-10-07T04:55:49.197Z,21.21
2017-10-07T04:56:49.525Z,21.22
2017-10-07T04:57:49.284Z,21.33
2017-10-07T04:58:49.286Z,21.27
2017-10-07T04:59:49.320Z,21.33
2017-10-07T05:00:49.366Z,21.22
2017-10-07T05:01:49.497Z,21.22
2017-10-07T05:02:49.426Z,21.30
2017-10-07T05:03:49.750Z,21.21
2017-10-07T05:04:49.486Z,21.30
2017-10-07T05:05:49.524Z,21.38
2017-10-07T05:06:49.577Z,21.22
2017-10-07T05:07:49.581Z,21.31
2017-10-07T05:08:49.606Z,21.26
2017-10-07T05:09:49.649Z,21.18
2017-10-07T05:10:49.974Z,21.28
2017-10-07T05:11:49.708Z,21.24
2017-10-07T05:12:49.989Z,21.31
2017-10-07T05:13:49.772Z,21.24
2017-10-07T05:14:49.811Z,21.22
2017-10-07T05:15:49.832Z,21.24
2017-10-07T05:16:50.163Z,21.18
2017-10-07T05:17:49.894Z,21.24
2017-10-07T05:18:50.032Z,21.27
2017-10-07T05:19:49.959Z,21.19
2017-10-07T05:20:49.995Z,21.22
2017-10-07T05:21:50.030Z,21.22
2017-10-07T05:22:50.362Z,21.26
2017-10-07T05:23:50.088Z,21.36
2017-10-07T05:24:50.127Z,21.33
2017-10-07T05:25:50.183Z,21.33
2017-10-07T05:26:50.186Z,21.28
2017-10-07T05:27:50.266Z,21.18
2017-10-07T05:28:50.547Z,21.26
2017-10-07T05:29:50.380Z,21.24
2017-10-07T05:30:50.314Z,21.24
2017-10-07T05:31:50.349Z,21.22
2017-10-07T05:32:50.374Z,21.19
2017-10-07T05:33:50.409Z,21.30
2017-10-07T05:34:50.738Z,21.33
2017-10-07T05:35:50.493Z,21.19
2017-10-07T05:36:50.504Z,21.27
2017-10-07T05:37:50.543Z,21.33
2017-10-07T05:38:50.620Z,21.30
2017-10-07T05:39:50.609Z,21.36
2017-10-07T05:40:50.937Z,21.22
2017-10-07T05:41:50.664Z,21.19
2017-10-07T05:42:50.699Z,21.24
2017-10-07T05:43:50.729Z,21.33
2017-10-07T05:44:50.758Z,21.33
2017-10-07T05:45:50.813Z,21.24
2017-10-07T05:46:51.126Z,21.24
2017-10-07T05:47:50.882Z,21.24
2017-10-07T05:48:50.889Z,21.28
2017-10-07T05:49:50.979Z,21.33
2017-10-07T05:50:50.954Z,21.33
2017-10-07T05:51:50.988Z,21.22
2017-10-07T05:52:51.316Z,21.34
2017-10-07T05:53:51.078Z,21.30
2017-10-07T05:54:51.188Z,21.22
2017-10-07T05:55:51.112Z,21.26
2017-10-07T05:56:51.142Z,21.26
2017-10-07T05:57:51.225Z,21.30
2017-10-07T05:58:51.530Z,21.24
2017-10-07T05:59:51.238Z,21.22
2017-10-07T06:00:51.585Z,21.22
2017-10-07T06:01:51.341Z,21.18
2017-10-07T06:02:51.340Z,21.26
2017-10-07T06:03:51.375Z,21.34
2017-10-07T06:04:51.699Z,21.36
2017-10-07T06:05:51.434Z,21.26
2017-10-07T06:06:51.613Z,21.30
2017-10-07T06:07:51.502Z,21.30
2017-10-07T06:08:51.528Z,21.27
2017-10-07T06:09:51.560Z,21.30
2017-10-07T06:10:51.892Z,21.28
2017-10-07T06:11:51.629Z,21.24
2017-10-07T06:12:51.654Z,21.26
2017-10-07T06:13:51.692Z,21.30
2017-10-07T06:14:51.722Z,21.31
2017-10-07T06:15:51.751Z,21.30
2017-10-07T06:16:52.090Z,21.33
2017-10-07T06:17:52.065Z,21.31
2017-10-07T06:18:51.854Z,21.28
2017-10-07T06:19:51.878Z,21.30
2017-10-07T06:20:51.922Z,21.37
2017-10-07T06:21:51.992Z,21.36
2017-10-07T06:22:52.277Z,21.30
2017-10-07T06:23:52.160Z,21.37
2017-10-07T06:24:52.041Z,21.38
2017-10-07T06:25:52.076Z,21.28
2017-10-07T06:26:52.103Z,21.27
2017-10-07T06:27:52.137Z,21.36
2017-10-07T06:28:52.468Z,21.34
2017-10-07T06:29:52.199Z,21.33
2017-10-07T06:30:52.231Z,21.34
2017-10-07T06:31:52.264Z,21.33
2017-10-07T06:32:52.295Z,21.27
2017-10-07T06:33:52.328Z,21.33
2017-10-07T06:34:52.561Z,21.36
2017-10-07T06:35:52.709Z,21.38
2017-10-07T06:36:52.426Z,21.33
2017-10-07T06:37:52.512Z,21.34
2017-10-07T06:38:52.517Z,21.30
2017-10-07T06:39:52.525Z,21.28
2017-10-07T06:40:52.609Z,21.33
2017-10-07T06:41:52.584Z,21.43
2017-10-07T06:42:53.337Z,21.38
2017-10-07T06:43:52.650Z,21.34
2017-10-07T06:44:52.681Z,21.40
2017-10-07T06:45:52.722Z,21.37
2017-10-07T06:46:52.747Z,21.37
2017-10-07T06:47:52.777Z,21.38
2017-10-07T06:48:52.912Z,21.40
2017-10-07T06:49:53.146Z,21.33
2017-10-07T06:50:52.877Z,21.36
2017-10-07T06:51:52.906Z,21.36
2017-10-07T06:52:52.989Z,21.42
2017-10-07T06:53:52.970Z,21.33
2017-10-07T06:54:53.008Z,21.34
2017-10-07T06:55:53.037Z,21.37
2017-10-07T06:56:53.369Z,21.40
2017-10-07T06:57:53.102Z,21.38
2017-10-07T06:58:53.133Z,21.38
2017-10-07T06:59:53.370Z,21.46
2017-10-07T07:00:53.194Z,21.38
2017-10-07T07:01:53.227Z,21.43
2017-10-07T07:02:53.560Z,21.43
2017-10-07T07:03:53.292Z,21.48
2017-10-07T07:04:53.328Z,21.49
2017-10-07T07:05:53.509Z,21.51
2017-10-07T07:06:53.391Z,21.52
2017-10-07T07:07:53.450Z,21.42
2017-10-07T07:08:53.758Z,21.48
2017-10-07T07:09:53.484Z,21.46
2017-10-07T07:10:53.519Z,21.46
2017-10-07T07:11:53.551Z,21.48
2017-10-07T07:12:53.587Z,21.46
2017-10-07T07:13:53.616Z,21.45
2017-10-07T07:14:53.954Z,21.52
2017-10-07T07:15:53.682Z,21.51
2017-10-07T07:16:53.816Z,21.53
2017-10-07T07:17:53.748Z,21.58
2017-10-07T07:18:53.779Z,21.52
2017-10-07T07:19:53.810Z,21.58
2017-10-07T07:20:54.142Z,21.55
2017-10-07T07:21:53.875Z,21.64
2017-10-07T07:22:54.030Z,21.61
2017-10-07T07:23:53.958Z,21.63
2017-10-07T07:24:53.976Z,21.61
2017-10-07T07:25:54.006Z,21.59
2017-10-07T07:26:54.044Z,21.59
2017-10-07T07:27:54.666Z,21.56
2017-10-07T07:28:54.101Z,21.64
2017-10-07T07:29:54.133Z,21.68
2017-10-07T07:30:54.163Z,21.71
2017-10-07T07:31:54.198Z,21.70
2017-10-07T07:32:54.231Z,21.70
2017-10-07T07:33:54.563Z,21.66
2017-10-07T07:34:54.300Z,21.66
2017-10-07T07:35:54.330Z,21.70
2017-10-07T07:36:54.414Z,21.68
2017-10-07T07:37:54.398Z,21.67
2017-10-07T07:38:54.729Z,21.73
2017-10-07T07:39:54.762Z,21.67
2017-10-07T07:40:54.487Z,21.73
2017-10-07T07:41:54.521Z,21.68
2017-10-07T07:42:54.555Z,21.68
2017-10-07T07:43:54.592Z,21.73
2017-10-07T07:44:54.619Z,21.68
2017-10-07T07:45:55.001Z,21.70
2017-10-07T07:46:54.683Z,21.71
2017-10-07T07:47:54.723Z,21.74
2017-10-07T07:48:54.760Z,21.70
2017-10-07T07:49:54.784Z,21.81
2017-10-07T07:50:54.816Z,21.85
2017-10-07T07:51:55.145Z,21.79
2017-10-07T07:52:54.907Z,21.77
2017-10-07T07:53:55.114Z,21.77
2017-10-07T07:54:54.941Z,21.70
2017-10-07T07:55:54.983Z,21.70
2017-10-07T07:56:55.010Z,21.70
2017-10-07T07:57:55.352Z,21.83
2017-10-07T07:58:55.104Z,21.79
2017-10-07T07:59:55.106Z,21.77
2017-10-07T08:00:55.775Z,21.86
2017-10-07T08:01:55.189Z,21.73
2017-10-07T08:02:55.202Z,21.86
2017-10-07T08:03:55.587Z,21.83
2017-10-07T08:04:55.269Z,21.86
2017-10-07T08:05:55.320Z,21.85
2017-10-07T08:06:55.339Z,21.90
2017-10-07T08:07:55.378Z,21.90
2017-10-07T08:08:55.471Z,21.86
2017-10-07T08:09:55.748Z,21.89
2017-10-07T08:10:55.465Z,21.83
2017-10-07T08:11:55.499Z,21.89
2017-10-07T08:12:55.529Z,21.83
2017-10-07T08:13:55.678Z,21.85
2017-10-07T08:14:55.594Z,21.85
2017-10-07T08:15:55.941Z,21.90
2017-10-07T08:16:55.659Z,21.82
2017-10-07T08:17:55.705Z,21.90
2017-10-07T08:18:55.739Z,21.77
2017-10-07T08:19:55.761Z,21.89
2017-10-07T08:20:55.789Z,21.89
2017-10-07T08:21:56.200Z,21.85
2017-10-07T08:22:55.859Z,21.86
2017-10-07T08:23:55.987Z,21.89
2017-10-07T08:24:57.202Z,21.89
2017-10-07T08:25:55.982Z,21.85
2017-10-07T08:26:55.985Z,21.89
2017-10-07T08:27:56.321Z,21.83
2017-10-07T08:28:56.102Z,21.73
2017-10-07T08:29:56.083Z,21.83
2017-10-07T08:30:56.118Z,21.77
2017-10-07T08:31:56.358Z,21.82
2017-10-07T08:32:56.241Z,21.85
2017-10-07T08:33:56.589Z,21.86
2017-10-07T08:34:56.253Z,21.83
2017-10-07T08:35:56.353Z,21.74
2017-10-07T08:36:56.584Z,21.89
2017-10-07T08:37:56.363Z,21.89
2017-10-07T08:38:56.379Z,21.85
2017-10-07T08:39:56.925Z,21.82
2017-10-07T08:40:56.440Z,21.77
2017-10-07T08:41:56.482Z,21.83
2017-10-07T08:42:56.515Z,21.85
2017-10-07T08:43:56.540Z,21.85
2017-10-07T08:44:56.574Z,21.89
2017-10-07T08:45:56.611Z,21.82
2017-10-07T08:46:56.948Z,21.89
2017-10-07T08:47:56.714Z,21.79
2017-10-07T08:48:56.754Z,21.83
2017-10-07T08:49:56.871Z,21.86
2017-10-07T08:50:56.773Z,21.82
2017-10-07T08:51:56.927Z,21.85
2017-10-07T08:52:56.939Z,21.86
2017-10-07T08:53:57.169Z,21.85
2017-10-07T08:54:57.124Z,21.83
2017-10-07T08:55:56.942Z,21.83
2017-10-07T08:56:56.961Z,21.86
2017-10-07T08:57:57.000Z,21.89
2017-10-07T08:58:57.026Z,21.91
2017-10-07T08:59:57.110Z,21.90
2017-10-07T09:00:57.091Z,21.89
2017-10-07T09:01:57.148Z,21.89
2017-10-07T09:02:57.155Z,21.93
2017-10-07T09:03:57.208Z,21.91
2017-10-07T09:04:57.520Z,21.93
2017-10-07T09:05:57.258Z,21.85
2017-10-07T09:06:57.386Z,21.81
2017-10-07T09:07:57.331Z,21.94
2017-10-07T09:08:57.352Z,21.90
2017-10-07T09:09:57.399Z,21.89
2017-10-07T09:10:57.427Z,21.86
2017-10-07T09:11:57.776Z,21.91
2017-10-07T09:12:57.635Z,21.93
2017-10-07T09:13:57.525Z,21.90
2017-10-07T09:14:57.585Z,21.96
2017-10-07T09:15:57.594Z,21.99
2017-10-07T09:16:57.728Z,21.89
2017-10-07T09:17:57.948Z,21.90
2017-10-07T09:18:57.681Z,21.86
2017-10-07T09:19:57.712Z,21.94
2017-10-07T09:20:57.748Z,21.89
2017-10-07T09:21:57.829Z,21.91
2017-10-07T09:22:57.809Z,21.90
2017-10-07T09:23:58.149Z,21.96
2017-10-07T09:24:57.947Z,21.91
2017-10-07T09:25:57.908Z,21.94
2017-10-07T09:26:57.939Z,21.90
2017-10-07T09:27:58.074Z,21.94
2017-10-07T09:28:58.029Z,21.86
2017-10-07T09:29:58.041Z,21.91
2017-10-07T09:30:58.382Z,21.93
2017-10-07T09:31:58.216Z,21.90
2017-10-07T09:32:58.140Z,22.01
2017-10-07T09:33:58.172Z,21.99
2017-10-07T09:34:58.239Z,21.96
2017-10-07T09:35:58.233Z,21.89
2017-10-07T09:36:58.635Z,21.94
2017-10-07T09:37:58.303Z,21.99
2017-10-07T09:38:58.350Z,21.91
2017-10-07T09:39:58.365Z,21.93
2017-10-07T09:40:58.400Z,21.91
2017-10-07T09:41:58.439Z,21.91
2017-10-07T09:42:58.910Z,21.93
2017-10-07T09:43:58.495Z,22.01
2017-10-07T09:44:58.534Z,21.94
2017-10-07T09:45:58.565Z,21.94
2017-10-07T09:46:58.593Z,21.86
2017-10-07T09:47:58.626Z,21.99
2017-10-07T09:48:59.011Z,21.94
2017-10-07T09:49:58.702Z,21.90
2017-10-07T09:50:58.722Z,21.86
2017-10-07T09:51:58.760Z,22.01
2017-10-07T09:52:58.800Z,21.94
2017-10-07T09:53:58.827Z,21.91
2017-10-07T09:54:59.170Z,21.91
2017-10-07T09:55:58.892Z,21.96
2017-10-07T09:56:58.949Z,21.91
2017-10-07T09:57:58.955Z,21.91
2017-10-07T09:58:58.985Z,21.93
2017-10-07T09:59:59.071Z,21.90
2017-10-07T10:00:59.353Z,21.91
2017-10-07T10:01:59.082Z,21.94
2017-10-07T10:02:59.116Z,21.89
2017-10-07T10:03:59.190Z,21.89
2017-10-07T10:04:59.437Z,21.90
2017-10-07T10:06:59.548Z,21.93
2017-10-07T10:07:59.285Z,21.98
2017-10-07T10:08:59.311Z,21.93
2017-10-07T10:09:59.341Z,21.94
2017-10-07T10:10:59.633Z,21.90
2017-10-07T10:11:59.413Z,21.94
2017-10-07T10:12:59.841Z,21.90
2017-10-07T10:13:59.473Z,22.01
2017-10-07T10:14:59.510Z,21.96
2017-10-07T10:15:59.587Z,21.91
2017-10-07T10:17:59.605Z,21.90
2017-10-07T10:18:59.651Z,21.90
2017-10-07T10:19:59.980Z,21.89
2017-10-07T10:20:59.708Z,21.91
2017-10-07T10:22:59.966Z,21.91
2017-10-07T10:23:59.810Z,21.91
2017-10-07T10:24:59.889Z,21.99
2017-10-07T10:26:00.166Z,21.93
2017-10-07T10:26:59.950Z,21.90
2017-10-07T10:27:59.930Z,21.96
2017-10-07T10:29:59.998Z,21.89
2017-10-07T10:31:00.035Z,21.91
2017-10-07T10:32:00.373Z,21.94
2017-10-07T10:33:00.098Z,21.89
2017-10-07T10:34:00.138Z,21.96
2017-10-07T10:35:00.384Z,21.89
2017-10-07T10:36:00.199Z,21.86
2017-10-07T10:37:00.276Z,21.91
2017-10-07T10:38:01.295Z,21.96
2017-10-07T10:39:00.600Z,21.89
2017-10-07T10:40:00.333Z,21.93
2017-10-07T10:41:00.407Z,21.93
2017-10-07T10:42:00.383Z,21.90
2017-10-07T10:43:00.416Z,21.93
2017-10-07T10:44:00.452Z,21.98
2017-10-07T10:45:00.781Z,21.93
2017-10-07T10:46:00.515Z,21.79
2017-10-07T10:47:00.666Z,21.89
2017-10-07T10:48:00.578Z,21.83
2017-10-07T10:49:00.614Z,21.85
2017-10-07T10:50:00.641Z,21.86
2017-10-07T10:51:03.254Z,21.93
2017-10-07T10:52:00.863Z,21.90
2017-10-07T10:53:01.145Z,21.89
2017-10-07T10:54:00.824Z,21.96
2017-10-07T10:55:00.806Z,21.96
2017-10-07T10:56:00.845Z,21.82
2017-10-07T10:57:01.187Z,21.93
2017-10-07T10:58:01.407Z,21.96
2017-10-07T10:59:00.937Z,21.93
2017-10-07T11:00:00.967Z,21.96
2017-10-07T11:01:01.019Z,21.93
2017-10-07T11:02:01.063Z,21.91
2017-10-07T11:03:01.378Z,21.93
2017-10-07T11:04:01.305Z,21.91
2017-10-07T11:05:01.175Z,21.90
2017-10-07T11:06:01.168Z,21.91
2017-10-07T11:07:01.200Z,21.83
2017-10-07T11:08:01.253Z,21.83
2017-10-07T11:09:01.784Z,21.81
2017-10-07T11:10:01.307Z,21.83
2017-10-07T11:11:01.352Z,21.89
2017-10-07T11:12:01.376Z,21.82
2017-10-07T11:13:01.396Z,21.85
2017-10-07T11:14:01.479Z,21.83
2017-10-07T11:15:01.754Z,21.85
2017-10-07T11:16:01.545Z,21.70
2017-10-07T11:17:01.529Z,21.83
2017-10-07T11:18:01.561Z,21.82
2017-10-07T11:19:01.641Z,21.73
2017-10-07T11:20:01.670Z,21.83
2017-10-07T11:21:01.954Z,21.86
2017-10-07T11:22:01.682Z,21.67
2017-10-07T11:23:01.720Z,21.79
2017-10-07T11:24:01.757Z,21.83
2017-10-07T11:25:01.980Z,21.73
2017-10-07T11:26:01.927Z,21.82
2017-10-07T11:27:01.845Z,21.75
2017-10-07T11:28:02.180Z,21.81
2017-10-07T11:29:01.927Z,21.77
2017-10-07T11:30:01.943Z,21.77
2017-10-07T11:31:02.026Z,21.81
2017-10-07T11:32:02.036Z,21.70
2017-10-07T11:33:02.045Z,21.81
2017-10-07T11:34:02.381Z,21.70
2017-10-07T11:35:02.310Z,21.75
2017-10-07T11:36:02.149Z,21.75
2017-10-07T11:37:02.278Z,21.77
2017-10-07T11:38:02.202Z,21.71
2017-10-07T11:39:02.260Z,21.75
2017-10-07T11:40:02.573Z,21.77
2017-10-07T11:41:02.801Z,21.73
2017-10-07T11:42:02.331Z,21.71
2017-10-07T11:43:02.365Z,21.71
2017-10-07T11:44:02.454Z,21.71
2017-10-07T11:45:02.441Z,21.70
2017-10-07T11:46:02.810Z,21.70
2017-10-07T11:47:02.492Z,21.66
2017-10-07T11:48:02.580Z,21.66
2017-10-07T11:49:02.562Z,21.73
2017-10-07T11:50:02.601Z,21.64
2017-10-07T11:51:02.728Z,21.63
2017-10-07T11:52:02.982Z,21.70
2017-10-07T11:53:02.739Z,21.68
2017-10-07T11:54:02.725Z,21.70
2017-10-07T11:55:02.749Z,21.61
2017-10-07T11:56:02.814Z,21.63
2017-10-07T11:57:02.827Z,21.58
2017-10-07T11:58:03.151Z,21.66
2017-10-07T12:00:02.918Z,21.61
2017-10-07T12:01:02.952Z,21.58
2017-10-07T12:02:02.979Z,21.61
2017-10-07T12:03:03.009Z,21.58
2017-10-07T12:04:04.759Z,21.58
2017-10-07T12:05:03.081Z,21.59
2017-10-07T12:06:03.102Z,21.55
2017-10-07T12:08:03.224Z,21.59
2017-10-07T12:09:03.202Z,21.51
2017-10-07T12:11:03.576Z,21.55
2017-10-07T12:12:03.333Z,21.53
2017-10-07T12:13:03.482Z,21.52
2017-10-07T12:14:03.360Z,21.51
2017-10-07T12:15:03.403Z,21.52
2017-10-07T12:16:03.445Z,21.55
2017-10-07T12:17:03.767Z,21.53
2017-10-07T12:18:03.520Z,21.58
2017-10-07T12:19:03.575Z,21.55
2017-10-07T12:20:03.582Z,21.49
2017-10-07T12:21:03.591Z,21.53
2017-10-07T12:22:03.622Z,21.52
2017-10-07T12:23:03.954Z,21.53
2017-10-07T12:24:03.688Z,21.55
2017-10-07T12:25:03.714Z,21.56
2017-10-07T12:26:03.769Z,21.52
2017-10-07T12:27:03.784Z,21.55
2017-10-07T12:28:03.862Z,21.51
2017-10-07T12:29:04.151Z,21.55
2017-10-07T12:30:03.880Z,21.49
2017-10-07T12:31:03.985Z,21.53
2017-10-07T12:32:03.954Z,21.53
2017-10-07T12:33:03.974Z,21.51
2017-10-07T12:34:04.064Z,21.52
2017-10-07T12:35:04.341Z,21.51
2017-10-07T12:36:04.070Z,21.55
2017-10-07T12:37:04.103Z,21.45
2017-10-07T12:38:04.135Z,21.52
2017-10-07T12:39:04.217Z,21.58
2017-10-07T12:40:04.256Z,21.52
2017-10-07T12:41:04.542Z,21.48
2017-10-07T12:42:04.277Z,21.52
2017-10-07T12:43:04.305Z,21.55
2017-10-07T12:44:04.390Z,21.48
2017-10-07T12:45:04.389Z,21.45
2017-10-07T12:46:04.445Z,21.51
2017-10-07T12:47:04.732Z,21.52
2017-10-07T12:48:04.468Z,21.46
2017-10-07T12:49:04.505Z,21.56
2017-10-07T12:50:04.604Z,21.48
2017-10-07T12:51:04.555Z,21.42
2017-10-07T12:52:04.608Z,21.51
2017-10-07T12:53:05.385Z,21.51
2017-10-07T12:54:04.658Z,21.51
2017-10-07T12:55:04.683Z,21.52
2017-10-07T12:56:04.773Z,21.52
2017-10-07T12:57:05.106Z,21.55
2017-10-07T12:58:04.791Z,21.45
2017-10-07T12:59:04.848Z,21.56
2017-10-07T13:00:05.172Z,21.52